createdAt,value
2023-03-22T00:00:06.677Z,91.12
2023-03-22T00:02:33.857Z,91.20
2023-03-22T00:05:01.440Z,91.31
2023-03-22T00:07:28.586Z,91.40
2023-03-22T00:09:55.813Z,91.37
2023-03-22T00:12:22.997Z,91.30
2023-03-22T00:14:50.112Z,91.41
2023-03-22T00:17:17.375Z,91.72
2023-03-22T00:19:45.081Z,92.49
2023-03-22T00:22:14.894Z,92.88
2023-03-22T00:24:42.194Z,92.99
2023-03-22T00:27:09.466Z,93.30
2023-03-22T00:29:36.769Z,93.59
2023-03-22T00:32:04.486Z,93.60
2023-03-22T00:34:33.263Z,93.30
2023-03-22T00:37:00.652Z,93.38
2023-03-22T00:39:27.789Z,93.21
2023-03-22T00:41:55.023Z,93.09
2023-03-22T00:44:22.110Z,93.18
2023-03-22T00:46:49.224Z,93.44
2023-03-22T00:49:16.526Z,93.40
2023-03-22T00:51:43.793Z,93.56
2023-03-22T00:54:12.043Z,93.61
2023-03-22T00:56:39.247Z,93.83
2023-03-22T00:59:14.780Z,93.63
2023-03-22T01:01:43.861Z,93.90
2023-03-22T01:04:15.629Z,94.38
2023-03-22T01:06:42.861Z,94.04
2023-03-22T01:09:15.279Z,93.49
2023-03-22T01:11:44.204Z,93.45
2023-03-22T01:14:14.084Z,93.67
2023-03-22T01:16:41.397Z,93.54
2023-03-22T01:19:09.391Z,93.31
2023-03-22T01:21:36.850Z,93.23
2023-03-22T01:24:04.589Z,92.38
2023-03-22T01:26:31.867Z,91.51
2023-03-22T01:28:59.113Z,90.94
2023-03-22T01:31:26.178Z,90.10
2023-03-22T01:33:53.614Z,89.72
2023-03-22T01:36:22.779Z,89.80
2023-03-22T01:38:50.055Z,89.76
2023-03-22T01:41:17.726Z,90.44
2023-03-22T01:43:46.003Z,90.02
2023-03-22T01:46:13.272Z,90.62
2023-03-22T01:48:46.683Z,91.03
2023-03-22T01:51:22.707Z,91.11
2023-03-22T01:54:14.937Z,91.62
2023-03-22T01:56:42.825Z,92.21
2023-03-22T01:59:16.359Z,92.66
2023-03-22T02:02:04.620Z,93.03
2023-03-22T02:04:39.281Z,93.45
2023-03-22T02:07:15.685Z,93.37
2023-03-22T02:09:47.214Z,93.25
2023-03-22T02:12:42.730Z,93.54
2023-03-22T02:15:38.623Z,93.54
2023-03-22T02:18:32.157Z,93.07
2023-03-22T02:21:12.196Z,92.90
2023-03-22T02:24:07.132Z,92.71
2023-03-22T02:27:26.581Z,91.79
2023-03-22T02:30:37.224Z,90.64
2023-03-22T02:33:23.594Z,90.15
2023-03-22T02:35:59.634Z,89.44
2023-03-22T02:38:49.713Z,89.23
2023-03-22T02:41:31.663Z,88.88
2023-03-22T02:44:04.548Z,88.33
2023-03-22T02:46:59.792Z,88.37
2023-03-22T02:49:37.810Z,87.62
2023-03-22T02:52:17.609Z,87.69
2023-03-22T02:54:51.665Z,87.60
2023-03-22T02:57:42.892Z,87.29
2023-03-22T03:00:14.211Z,87.39
2023-03-22T03:02:45.805Z,87.47
2023-03-22T03:05:15.203Z,87.47
2023-03-22T03:07:48.612Z,87.94
2023-03-22T03:10:19.465Z,88.17
2023-03-22T03:12:47.042Z,88.59
2023-03-22T03:15:20.723Z,88.41
2023-03-22T03:17:53.685Z,88.56
2023-03-22T03:20:42.614Z,88.51
2023-03-22T03:23:31.501Z,88.51
2023-03-22T03:26:04.455Z,89.13
2023-03-22T03:28:51.635Z,89.37
2023-03-22T03:31:31.904Z,89.38
2023-03-22T03:34:09.966Z,89.44
2023-03-22T03:36:40.356Z,89.77
2023-03-22T03:39:12.326Z,90.27
2023-03-22T03:41:42.542Z,90.92
2023-03-22T03:44:10.327Z,90.98
2023-03-22T03:46:38.088Z,90.86
2023-03-22T03:49:07.878Z,90.86
2023-03-22T03:51:47.645Z,90.58
2023-03-22T03:54:15.597Z,90.04
2023-03-22T03:56:42.737Z,90.16
2023-03-22T03:59:10.034Z,89.77
2023-03-22T04:01:37.530Z,89.58
2023-03-22T04:04:15.486Z,89.35
2023-03-22T04:06:54.407Z,88.92
2023-03-22T04:09:27.126Z,88.63
2023-03-22T04:11:59.121Z,88.43
2023-03-22T04:14:26.985Z,88.05
2023-03-22T04:16:57.116Z,87.37
2023-03-22T04:19:26.219Z,86.99
2023-03-22T04:21:53.717Z,86.46
2023-03-22T04:24:22.363Z,86.35
2023-03-22T04:26:52.867Z,86.03
2023-03-22T04:29:24.928Z,86.42
2023-03-22T04:32:00.545Z,86.22
2023-03-22T04:34:37.044Z,86.17
2023-03-22T04:37:09.755Z,86.52
2023-03-22T04:39:41.430Z,86.78
2023-03-22T04:42:28.902Z,86.38
2023-03-22T04:45:12.712Z,86.02
2023-03-22T04:47:41.754Z,85.88
2023-03-22T04:50:09.526Z,85.67
2023-03-22T04:52:45.635Z,85.95
2023-03-22T04:55:12.758Z,85.83
2023-03-22T04:57:40.964Z,86.00
2023-03-22T05:00:10.117Z,86.01
2023-03-22T05:02:41.467Z,86.06
2023-03-22T05:05:16.961Z,86.16
2023-03-22T05:07:45.905Z,85.86
2023-03-22T05:10:13.052Z,85.42
2023-03-22T05:12:41.309Z,84.91
2023-03-22T05:15:39.298Z,84.11
2023-03-22T05:18:08.248Z,81.80
2023-03-22T05:20:37.810Z,81.37
2023-03-22T05:23:19.416Z,81.12
2023-03-22T05:25:52.036Z,79.11
2023-03-22T05:28:21.564Z,75.67
2023-03-22T05:31:18.404Z,74.16
2023-03-22T05:33:52.592Z,75.07
2023-03-22T05:36:23.762Z,75.52
2023-03-22T05:39:09.426Z,76.37
2023-03-22T05:41:37.103Z,74.56
2023-03-22T05:44:05.508Z,73.05
2023-03-22T05:46:34.315Z,71.29
2023-03-22T05:49:20.040Z,68.46
2023-03-22T05:51:47.844Z,64.94
2023-03-22T05:54:16.711Z,63.50
2023-03-22T05:56:49.771Z,60.30
2023-03-22T05:59:17.022Z,57.41
2023-03-22T06:01:44.870Z,57.84
2023-03-22T06:04:22.239Z,57.02
2023-03-22T06:06:57.450Z,56.59
2023-03-22T06:09:43.448Z,58.02
2023-03-22T06:12:16.365Z,59.99
2023-03-22T06:14:48.543Z,58.65
2023-03-22T06:17:35.821Z,56.67
2023-03-22T06:20:11.622Z,54.92
2023-03-22T06:22:41.883Z,54.10
2023-03-22T06:25:10.352Z,52.93
2023-03-22T06:27:42.159Z,49.72
2023-03-22T06:30:09.981Z,47.36
2023-03-22T06:32:55.141Z,47.71
2023-03-22T06:35:22.488Z,48.71
2023-03-22T06:37:49.970Z,48.82
2023-03-22T06:40:17.520Z,49.15
2023-03-22T06:42:46.444Z,48.58
2023-03-22T06:45:18.155Z,47.40
2023-03-22T06:47:46.615Z,47.22
2023-03-22T06:50:28.935Z,46.50
2023-03-22T06:53:04.275Z,49.03
2023-03-22T06:55:35.044Z,50.53
2023-03-22T06:58:11.549Z,53.04
2023-03-22T07:00:39.472Z,52.67
2023-03-22T07:03:08.258Z,52.00
2023-03-22T07:05:41.886Z,48.87
2023-03-22T07:08:11.261Z,46.64
2023-03-22T07:10:49.575Z,44.08
2023-03-22T07:13:16.914Z,43.70
2023-03-22T07:15:44.942Z,43.19
2023-03-22T07:18:24.734Z,42.35
2023-03-22T07:20:52.400Z,42.45
2023-03-22T07:23:20.033Z,41.81
2023-03-22T07:25:52.260Z,41.85
2023-03-22T07:28:24.640Z,42.09
2023-03-22T07:31:12.656Z,43.61
2023-03-22T07:34:06.768Z,42.98
2023-03-22T07:36:50.089Z,40.85
2023-03-22T07:39:17.240Z,41.16
2023-03-22T07:41:47.830Z,41.74
2023-03-22T07:44:25.929Z,42.03
2023-03-22T07:47:27.180Z,43.05
2023-03-22T07:50:13.432Z,45.17
2023-03-22T07:52:42.881Z,45.43
2023-03-22T07:55:14.761Z,45.08
2023-03-22T07:57:42.610Z,45.50
2023-03-22T08:00:13.287Z,47.00
2023-03-22T08:02:46.486Z,47.01
2023-03-22T08:05:33.619Z,46.44
2023-03-22T08:08:02.655Z,46.75
2023-03-22T08:10:29.727Z,45.86
2023-03-22T08:12:56.855Z,47.91
2023-03-22T08:15:26.593Z,48.38
2023-03-22T08:17:58.033Z,49.93
2023-03-22T08:20:39.431Z,53.19
2023-03-22T08:23:16.107Z,54.05
2023-03-22T08:26:02.112Z,56.31
2023-03-22T08:28:30.719Z,56.80
2023-03-22T08:30:57.739Z,57.64
2023-03-22T08:33:25.700Z,57.74
2023-03-22T08:35:53.329Z,58.98
2023-03-22T08:38:20.742Z,59.48
2023-03-22T08:40:52.167Z,58.60
2023-03-22T08:43:23.746Z,60.59
2023-03-22T08:45:51.863Z,59.08
2023-03-22T08:48:21.150Z,59.93
2023-03-22T08:51:03.098Z,60.14
2023-03-22T08:53:40.529Z,60.53
2023-03-22T08:56:40.065Z,60.96
2023-03-22T08:59:20.600Z,59.49
2023-03-22T09:02:10.995Z,59.90
2023-03-22T09:04:38.332Z,59.35
2023-03-22T09:07:05.526Z,57.48
2023-03-22T09:09:32.961Z,58.26
2023-03-22T09:12:00.212Z,59.83
2023-03-22T09:14:27.529Z,59.18
2023-03-22T09:16:55.263Z,60.01
2023-03-22T09:19:22.778Z,60.06
2023-03-22T09:21:50.234Z,59.45
2023-03-22T09:24:28.508Z,60.20
2023-03-22T09:26:59.406Z,59.94
2023-03-22T09:29:26.590Z,60.90
2023-03-22T09:31:53.770Z,61.18
2023-03-22T09:34:28.639Z,61.87
2023-03-22T09:36:58.694Z,61.45
2023-03-22T09:39:30.334Z,59.94
2023-03-22T09:42:07.508Z,59.94
2023-03-22T09:44:40.746Z,60.74
2023-03-22T09:47:21.851Z,61.41
2023-03-22T09:49:56.893Z,60.72
2023-03-22T09:52:24.070Z,61.57
2023-03-22T09:54:53.029Z,62.01
2023-03-22T09:57:35.515Z,62.76
2023-03-22T10:00:15.798Z,62.09
2023-03-22T10:02:45.949Z,63.11
2023-03-22T10:05:23.689Z,62.33
2023-03-22T10:08:15.668Z,62.23
2023-03-22T10:10:43.483Z,62.59
2023-03-22T10:13:20.378Z,62.51
2023-03-22T10:15:51.790Z,62.55
2023-03-22T10:18:47.392Z,61.61
2023-03-22T10:21:17.559Z,61.00
2023-03-22T10:24:09.425Z,61.08
2023-03-22T10:26:42.228Z,60.04
2023-03-22T10:29:19.343Z,59.08
2023-03-22T10:31:46.690Z,59.59
2023-03-22T10:34:22.875Z,59.59
2023-03-22T10:36:53.780Z,59.33
2023-03-22T10:39:30.242Z,59.41
2023-03-22T10:42:11.885Z,60.20
2023-03-22T10:45:08.781Z,60.12
2023-03-22T10:47:42.504Z,61.72
2023-03-22T10:50:17.525Z,61.17
2023-03-22T10:53:08.633Z,61.30
2023-03-22T10:55:44.154Z,60.45
2023-03-22T10:58:19.673Z,60.18
2023-03-22T11:01:08.841Z,60.96
2023-03-22T11:03:36.642Z,60.51
2023-03-22T11:06:14.308Z,60.81
2023-03-22T11:08:52.573Z,61.12
2023-03-22T11:11:36.074Z,60.79
2023-03-22T11:14:14.316Z,60.87
2023-03-22T11:16:50.964Z,60.06
2023-03-22T11:19:26.984Z,59.51
2023-03-22T11:21:59.529Z,60.04
2023-03-22T11:24:28.552Z,59.72
2023-03-22T11:27:23.053Z,58.73
2023-03-22T11:29:52.989Z,59.32
2023-03-22T11:32:36.749Z,58.79
2023-03-22T11:35:21.335Z,60.52
2023-03-22T11:37:51.485Z,61.37
2023-03-22T11:40:23.858Z,59.48
2023-03-22T11:42:57.237Z,59.96
2023-03-22T11:45:29.845Z,60.49
2023-03-22T11:48:10.064Z,61.32
2023-03-22T11:50:40.273Z,61.42
2023-03-22T11:53:12.591Z,60.25
2023-03-22T11:55:39.994Z,61.27
2023-03-22T11:58:07.359Z,61.24
2023-03-22T12:00:37.926Z,60.48
2023-03-22T12:03:17.423Z,59.24
2023-03-22T12:05:49.180Z,59.78
2023-03-22T12:08:24.076Z,58.75
2023-03-22T12:11:02.918Z,59.89
2023-03-22T12:13:46.160Z,60.70
2023-03-22T12:16:18.127Z,59.76
2023-03-22T12:18:51.945Z,60.70
2023-03-22T12:21:19.757Z,61.88
2023-03-22T12:23:46.867Z,61.72
2023-03-22T12:26:21.993Z,61.96
2023-03-22T12:29:18.451Z,60.88
2023-03-22T12:32:28.845Z,61.55
2023-03-22T12:35:05.413Z,59.96
2023-03-22T12:37:45.011Z,61.04
2023-03-22T12:40:22.237Z,61.12
2023-03-22T12:43:01.216Z,60.44
2023-03-22T12:45:31.993Z,60.56
2023-03-22T12:48:21.998Z,60.42
2023-03-22T12:50:57.025Z,61.28
2023-03-22T12:53:28.789Z,60.38
2023-03-22T12:55:56.550Z,62.36
2023-03-22T12:58:26.740Z,62.47
2023-03-22T13:01:11.319Z,61.77
2023-03-22T13:03:52.353Z,62.65
2023-03-22T13:06:35.338Z,63.54
2023-03-22T13:09:18.133Z,62.71
2023-03-22T13:12:09.484Z,63.24
2023-03-22T13:14:59.503Z,63.25
2023-03-22T13:17:27.627Z,63.62
2023-03-22T13:20:13.728Z,63.51
2023-03-22T13:22:43.866Z,63.16
2023-03-22T13:25:13.964Z,63.34
2023-03-22T13:27:57.626Z,62.75
2023-03-22T13:30:35.760Z,62.89
2023-03-22T13:33:14.357Z,63.43
2023-03-22T13:35:51.428Z,64.54
2023-03-22T13:38:30.165Z,64.19
2023-03-22T13:41:06.006Z,64.42
2023-03-22T13:43:39.164Z,64.83
2023-03-22T13:46:20.071Z,65.48
2023-03-22T13:48:48.051Z,66.31
2023-03-22T13:51:31.194Z,66.38
2023-03-22T13:54:14.280Z,67.22
2023-03-22T13:56:42.062Z,67.13
2023-03-22T13:59:20.306Z,65.87
2023-03-22T14:02:24.463Z,66.32
2023-03-22T14:05:00.686Z,68.64
2023-03-22T14:07:44.411Z,68.29
2023-03-22T14:10:40.955Z,69.15
2023-03-22T14:13:33.359Z,69.95
2023-03-22T14:16:18.667Z,70.20
2023-03-22T14:18:49.487Z,71.17
2023-03-22T14:21:22.831Z,70.79
